createdAt,value
2023-12-01T00:00:08.325Z,0.10
2023-12-01T00:06:10.383Z,0.10
2023-12-01T00:12:12.960Z,0.00
2023-12-01T00:18:15.096Z,0.20
2023-12-01T00:24:17.157Z,0.00
2023-12-01T00:30:19.039Z,0.10
2023-12-01T00:36:22.323Z,0.10
2023-12-01T00:42:24.231Z,-0.10
2023-12-01T00:48:26.319Z,-0.20
2023-12-01T00:54:28.227Z,-0.10
2023-12-01T01:00:30.458Z,-0.10
2023-12-01T01:06:32.454Z,0.00
2023-12-01T01:12:34.826Z,-0.10
2023-12-01T01:18:37.480Z,-0.20
2023-12-01T01:24:39.428Z,-0.30
2023-12-01T01:30:41.830Z,-0.40
2023-12-01T01:36:45.870Z,-0.40
2023-12-01T01:42:47.894Z,-0.50
2023-12-01T01:48:50.056Z,-0.40
2023-12-01T01:54:52.236Z,-0.40
2023-12-01T02:00:55.235Z,-0.20
2023-12-01T02:06:58.120Z,-0.40
2023-12-01T02:13:00.856Z,-0.30
2023-12-01T02:19:04.022Z,-0.40
2023-12-01T02:25:06.490Z,-0.40
2023-12-01T02:31:08.518Z,-0.50
2023-12-01T02:37:10.777Z,-0.60
2023-12-01T02:43:15.334Z,-0.60
2023-12-01T02:49:18.592Z,-0.60
2023-12-01T02:55:20.410Z,-0.60
2023-12-01T03:01:22.700Z,-0.70
2023-12-01T03:07:24.974Z,-0.60
2023-12-01T03:13:27.020Z,-0.70
2023-12-01T03:19:28.995Z,-0.70
2023-12-01T03:25:31.078Z,-0.70
2023-12-01T03:31:33.066Z,-0.70
2023-12-01T03:37:35.028Z,-0.80
2023-12-01T03:43:37.003Z,-0.80
2023-12-01T03:49:39.335Z,-0.80
2023-12-01T03:55:41.320Z,-0.60
2023-12-01T04:01:43.288Z,-0.80
2023-12-01T04:07:46.879Z,-0.60
2023-12-01T04:13:49.077Z,-0.60
2023-12-01T04:19:50.930Z,-0.70
2023-12-01T04:25:52.882Z,-0.80
2023-12-01T04:32:00.623Z,-1.00
2023-12-01T04:38:10.331Z,-0.90
2023-12-01T04:44:12.263Z,-0.80
2023-12-01T04:50:15.781Z,-0.90
2023-12-01T04:56:17.796Z,-1.10
2023-12-01T05:02:19.951Z,-1.00
2023-12-01T05:08:22.207Z,-1.10
2023-12-01T05:14:24.195Z,-1.10
2023-12-01T05:20:28.674Z,-1.10
2023-12-01T05:26:30.790Z,-0.90
2023-12-01T05:32:34.248Z,-0.70
2023-12-01T05:38:36.267Z,-0.80
2023-12-01T05:44:38.632Z,-0.90
2023-12-01T05:50:44.105Z,-0.80
2023-12-01T05:56:46.223Z,-0.90
2023-12-01T06:02:49.836Z,-0.90
2023-12-01T06:08:51.763Z,-0.70
2023-12-01T06:14:53.675Z,-0.70
2023-12-01T06:20:55.747Z,-0.70
2023-12-01T06:26:57.935Z,-0.70
2023-12-01T06:33:00.351Z,-0.80
2023-12-01T06:39:02.670Z,-0.80
2023-12-01T06:45:05.513Z,-0.80
2023-12-01T06:51:07.819Z,-0.90
2023-12-01T06:57:09.847Z,-1.00
2023-12-01T07:03:12.877Z,-0.90
2023-12-01T07:09:20.907Z,-0.70
2023-12-01T07:15:26.452Z,-0.80
2023-12-01T07:21:29.931Z,-0.70
2023-12-01T07:27:32.070Z,-0.60
2023-12-01T07:33:34.079Z,-0.90
2023-12-01T07:39:36.155Z,-0.80
2023-12-01T07:45:39.412Z,-0.80
2023-12-01T07:51:41.940Z,-1.10
2023-12-01T07:57:45.209Z,-1.20
2023-12-01T08:03:47.776Z,-1.20
2023-12-01T08:09:49.908Z,-0.90
2023-12-01T08:15:52.917Z,-1.10
2023-12-01T08:21:54.968Z,-1.30
2023-12-01T08:27:57.545Z,-1.40
2023-12-01T08:34:00.040Z,-1.10
2023-12-01T08:40:02.653Z,-1.20
2023-12-01T08:46:04.975Z,-1.40
2023-12-01T08:52:08.592Z,-1.30
2023-12-01T08:58:10.659Z,-1.30
2023-12-01T09:04:12.835Z,-1.00
2023-12-01T09:10:16.782Z,-1.00
2023-12-01T09:16:18.779Z,-1.10
2023-12-01T09:22:20.737Z,-1.00
2023-12-01T09:28:25.053Z,-1.20
2023-12-01T09:34:28.583Z,-0.90
2023-12-01T09:40:30.561Z,-0.90
2023-12-01T09:46:36.897Z,-1.10
2023-12-01T09:52:39.759Z,-1.10
2023-12-01T09:58:45.217Z,-1.00
2023-12-01T10:04:47.201Z,-0.70
2023-12-01T10:10:49.234Z,-0.70
2023-12-01T10:16:51.951Z,-0.60
2023-12-01T10:22:56.350Z,-0.50
2023-12-01T10:28:59.334Z,-0.60
2023-12-01T10:35:03.564Z,-0.70
2023-12-01T10:41:06.801Z,-0.50
2023-12-01T10:47:11.226Z,-0.50
2023-12-01T10:53:16.658Z,-0.50
2023-12-01T10:59:22.534Z,-0.70
2023-12-01T11:05:25.974Z,-0.40
2023-12-01T11:12:03.734Z,-0.10
2023-12-01T11:18:09.927Z,0.10
2023-12-01T11:24:33.161Z,0.20
2023-12-01T11:31:04.538Z,0.30
2023-12-01T11:37:07.945Z,0.20
2023-12-01T11:43:19.311Z,-0.40
2023-12-01T11:49:28.029Z,0.10
2023-12-01T11:55:30.683Z,0.00
2023-12-01T12:01:35.386Z,0.00
2023-12-01T12:07:39.313Z,0.30
2023-12-01T12:13:42.421Z,0.20
2023-12-01T12:19:50.384Z,0.40
2023-12-01T12:25:55.910Z,0.60
2023-12-01T12:31:58.564Z,0.40
2023-12-01T12:38:01.945Z,0.30
2023-12-01T12:44:06.051Z,0.10
2023-12-01T12:50:12.049Z,0.00
2023-12-01T12:56:16.543Z,-0.20
2023-12-01T13:02:19.038Z,0.10
2023-12-01T13:08:21.119Z,0.40
2023-12-01T13:14:23.227Z,-0.10
2023-12-01T13:20:25.187Z,-0.40
2023-12-01T13:26:27.841Z,-0.50
2023-12-01T13:32:30.604Z,-0.60
2023-12-01T13:38:33.542Z,-0.80
2023-12-01T13:44:35.459Z,-0.80
2023-12-01T13:50:38.529Z,-0.90
2023-12-01T13:56:40.844Z,-0.90
2023-12-01T14:02:48.618Z,-1.20
2023-12-01T14:08:50.720Z,-1.00
2023-12-01T14:14:52.755Z,-1.10
2023-12-01T14:20:54.882Z,-1.10
2023-12-01T14:26:57.002Z,-1.20
2023-12-01T14:32:59.011Z,-1.10
2023-12-01T14:39:01.685Z,-1.00
2023-12-01T14:45:08.003Z,-1.00
2023-12-01T14:51:09.965Z,-1.00
2023-12-01T14:57:12.360Z,-1.00
2023-12-01T15:03:14.442Z,-1.10
2023-12-01T15:09:16.686Z,-1.30
2023-12-01T15:15:19.750Z,-1.10
2023-12-01T15:21:22.166Z,-1.20
2023-12-01T15:27:25.235Z,-1.30
2023-12-01T15:33:27.244Z,-1.10
2023-12-01T15:39:32.281Z,-1.10
2023-12-01T15:45:34.300Z,-1.30
2023-12-01T15:51:36.474Z,-1.50
2023-12-01T15:57:38.728Z,-1.20
2023-12-01T16:03:41.488Z,-1.20
2023-12-01T16:09:43.782Z,-1.40
2023-12-01T16:15:45.843Z,-1.40
2023-12-01T16:21:47.793Z,-1.50
2023-12-01T16:27:49.817Z,-1.40
2023-12-01T16:33:51.969Z,-1.40
2023-12-01T16:39:54.657Z,-1.40
2023-12-01T16:45:58.653Z,-1.40
2023-12-01T16:52:01.020Z,-1.50
2023-12-01T16:58:10.174Z,-1.50
2023-12-01T17:04:19.195Z,-1.60
2023-12-01T17:10:21.345Z,-1.40
2023-12-01T17:16:23.362Z,-1.20
2023-12-01T17:22:25.431Z,-1.20
2023-12-01T17:28:27.401Z,-1.20
2023-12-01T17:34:29.366Z,-1.30
2023-12-01T17:40:31.489Z,-1.40
2023-12-01T17:46:33.491Z,-1.50
2023-12-01T17:52:35.447Z,-1.50
2023-12-01T17:58:37.544Z,-1.80
2023-12-01T18:04:39.563Z,-1.90
2023-12-01T18:10:41.608Z,-1.70
2023-12-01T18:16:43.855Z,-1.60
2023-12-01T18:22:45.908Z,-1.70
2023-12-01T18:28:47.953Z,-1.70
2023-12-01T18:34:50.404Z,-1.50
2023-12-01T18:40:52.837Z,-1.60
2023-12-01T18:46:54.881Z,-1.40
2023-12-01T18:52:57.049Z,-1.40
2023-12-01T18:58:58.937Z,-1.40
2023-12-01T19:05:01.539Z,-1.50
2023-12-01T19:11:03.742Z,-1.40
2023-12-01T19:17:06.674Z,-1.40
2023-12-01T19:23:08.518Z,-1.40
2023-12-01T19:29:10.418Z,-1.60
2023-12-01T19:35:12.602Z,-1.60
2023-12-01T19:41:14.719Z,-1.60
2023-12-01T19:47:16.713Z,-1.80
2023-12-01T19:53:19.314Z,-1.90
2023-12-01T19:59:21.340Z,-1.90
2023-12-01T20:05:23.221Z,-1.90
2023-12-01T20:11:26.750Z,-1.80
2023-12-01T20:17:28.895Z,-1.90
2023-12-01T20:23:31.260Z,-1.70
2023-12-01T20:29:33.401Z,-1.80
2023-12-01T20:35:35.347Z,-1.90
2023-12-01T20:41:37.674Z,-1.90
2023-12-01T20:47:39.640Z,-1.80
2023-12-01T20:53:42.138Z,-1.70
2023-12-01T20:59:45.402Z,-1.70
2023-12-01T21:05:47.354Z,-1.70
2023-12-01T21:11:49.887Z,-1.60
2023-12-01T21:17:52.175Z,-1.70
2023-12-01T21:23:54.254Z,-1.60
2023-12-01T21:29:56.053Z,-1.70
2023-12-01T21:35:58.074Z,-1.60
2023-12-01T21:42:00.047Z,-1.70
2023-12-01T21:48:02.322Z,-1.80
2023-12-01T21:54:06.159Z,-1.70
2023-12-01T22:00:09.053Z,-1.60
2023-12-01T22:06:13.997Z,-1.60
2023-12-01T22:12:16.068Z,-1.70
2023-12-01T22:18:18.071Z,-1.50
2023-12-01T22:24:20.134Z,-1.50
2023-12-01T22:30:22.080Z,-1.60
2023-12-01T22:36:24.037Z,-1.70
2023-12-01T22:42:25.932Z,-1.80
2023-12-01T22:48:28.649Z,-1.70
2023-12-01T22:54:31.346Z,-1.60
2023-12-01T23:00:34.452Z,-1.60
2023-12-01T23:06:36.800Z,-1.70
2023-12-01T23:12:40.708Z,-1.70
2023-12-01T23:18:42.868Z,-1.80
2023-12-01T23:24:44.962Z,-1.70
2023-12-01T23:30:46.865Z,-1.70
2023-12-01T23:36:49.646Z,-1.60
2023-12-01T23:42:51.997Z,-1.70
2023-12-01T23:48:54.166Z,-1.70
2023-12-01T23:54:56.294Z,-1.60
